createdAt,value
2018-05-09T00:00:59.980Z,13.20
2018-05-09T00:03:27.440Z,13.10
2018-05-09T00:05:55.010Z,13.10
2018-05-09T00:08:22.464Z,13.10
2018-05-09T00:10:49.948Z,13.00
2018-05-09T00:13:17.484Z,13.00
2018-05-09T00:15:45.044Z,12.90
2018-05-09T00:18:12.600Z,12.90
2018-05-09T00:20:40.056Z,12.80
2018-05-09T00:23:07.629Z,12.70
2018-05-09T00:25:35.189Z,12.70
2018-05-09T00:28:02.745Z,12.70
2018-05-09T00:30:30.205Z,12.60
2018-05-09T00:32:57.761Z,12.60
2018-05-09T00:35:25.216Z,12.50
2018-05-09T00:37:52.781Z,12.50
2018-05-09T00:40:20.240Z,12.40
2018-05-09T00:42:47.796Z,12.40
2018-05-09T00:45:15.250Z,12.40
2018-05-09T00:47:42.713Z,12.40
2018-05-09T00:50:10.190Z,12.40
2018-05-09T00:52:37.628Z,12.30
2018-05-09T00:55:05.086Z,12.20
2018-05-09T00:57:32.541Z,12.10
2018-05-09T01:00:00.005Z,12.00
2018-05-09T01:02:27.460Z,12.00
2018-05-09T01:04:54.925Z,12.00
2018-05-09T01:07:22.476Z,12.00
2018-05-09T01:09:50.044Z,12.10
2018-05-09T01:12:17.600Z,12.10
2018-05-09T01:14:45.056Z,12.10
2018-05-09T01:17:12.621Z,12.10
2018-05-09T01:19:40.844Z,12.00
2018-05-09T01:22:08.297Z,12.00
2018-05-09T01:24:35.754Z,11.90
2018-05-09T01:27:03.972Z,11.70
2018-05-09T01:29:31.429Z,11.70
2018-05-09T01:31:58.904Z,11.60
2018-05-09T01:34:26.472Z,11.60
2018-05-09T01:36:54.029Z,11.60
2018-05-09T01:39:21.647Z,11.60
2018-05-09T01:41:49.097Z,11.60
2018-05-09T01:44:16.544Z,11.50
2018-05-09T01:46:44.004Z,11.50
2018-05-09T01:49:11.462Z,11.50
2018-05-09T01:51:38.925Z,11.60
2018-05-09T01:54:06.436Z,11.60
2018-05-09T01:56:33.889Z,11.50
2018-05-09T01:59:01.452Z,11.50
2018-05-09T02:01:28.910Z,11.50
2018-05-09T02:03:56.469Z,11.40
2018-05-09T02:06:24.028Z,11.40
2018-05-09T02:08:51.592Z,11.40
2018-05-09T02:11:19.148Z,11.40
2018-05-09T02:13:46.716Z,11.40
2018-05-09T02:16:14.273Z,11.40
2018-05-09T02:18:41.796Z,11.40
2018-05-09T02:21:09.298Z,11.40
2018-05-09T02:23:36.848Z,11.30
2018-05-09T02:26:04.300Z,11.20
2018-05-09T02:28:31.779Z,11.30
2018-05-09T02:30:59.287Z,11.20
2018-05-09T02:33:26.691Z,11.20
2018-05-09T02:35:54.145Z,11.20
2018-05-09T02:38:21.607Z,11.10
2018-05-09T02:40:49.076Z,11.10
2018-05-09T02:43:16.620Z,11.00
2018-05-09T02:45:44.077Z,11.00
2018-05-09T02:48:11.645Z,11.00
2018-05-09T02:50:39.101Z,10.90
2018-05-09T02:53:06.557Z,10.90
2018-05-09T02:55:34.022Z,11.00
2018-05-09T02:58:01.485Z,10.90
2018-05-09T03:00:29.033Z,10.90
2018-05-09T03:02:56.594Z,10.90
2018-05-09T03:05:24.057Z,10.80
2018-05-09T03:07:51.520Z,10.70
2018-05-09T03:10:18.977Z,10.70
2018-05-09T03:12:46.525Z,10.60
2018-05-09T03:15:14.076Z,10.60
2018-05-09T03:17:41.539Z,10.50
2018-05-09T03:20:09.106Z,10.50
2018-05-09T03:22:36.661Z,10.50
2018-05-09T03:25:04.121Z,10.40
2018-05-09T03:27:31.583Z,10.30
2018-05-09T03:29:59.805Z,10.20
2018-05-09T03:32:27.377Z,10.20
2018-05-09T03:34:54.872Z,10.20
2018-05-09T03:37:22.451Z,10.20
2018-05-09T03:39:50.001Z,10.20
2018-05-09T03:42:17.556Z,10.20
2018-05-09T03:44:45.113Z,10.10
2018-05-09T03:47:12.569Z,10.00
2018-05-09T03:49:40.140Z,9.90
2018-05-09T03:52:07.698Z,9.90
2018-05-09T03:54:35.262Z,9.80
2018-05-09T03:57:02.825Z,9.80
2018-05-09T03:59:30.272Z,9.80
2018-05-09T04:02:09.609Z,9.70
2018-05-09T04:04:49.885Z,9.80
2018-05-09T04:07:29.310Z,9.80
2018-05-09T04:09:56.764Z,9.80
2018-05-09T04:12:24.330Z,9.80
2018-05-09T04:14:53.449Z,9.80
2018-05-09T04:17:20.985Z,9.80
2018-05-09T04:19:49.263Z,9.80
2018-05-09T04:22:16.822Z,9.70
2018-05-09T04:24:44.377Z,9.80
2018-05-09T04:27:11.841Z,9.80
2018-05-09T04:29:39.397Z,9.80
2018-05-09T04:32:06.857Z,9.80
2018-05-09T04:34:35.138Z,9.80
2018-05-09T04:37:02.601Z,9.80
2018-05-09T04:39:30.153Z,9.90
2018-05-09T04:41:58.509Z,9.90
2018-05-09T04:44:25.884Z,9.90
2018-05-09T04:46:53.346Z,10.00
2018-05-09T04:49:20.809Z,10.00
2018-05-09T04:51:48.360Z,10.00
2018-05-09T04:54:15.830Z,10.10
2018-05-09T04:56:43.387Z,10.20
2018-05-09T04:59:10.856Z,10.30
2018-05-09T05:01:39.116Z,10.40
2018-05-09T05:04:06.581Z,10.40
2018-05-09T05:06:34.038Z,10.50
2018-05-09T05:09:01.501Z,10.50
2018-05-09T05:11:28.959Z,10.60
2018-05-09T05:13:56.416Z,10.70
2018-05-09T05:16:23.876Z,10.80
2018-05-09T05:18:51.335Z,10.90
2018-05-09T05:21:18.877Z,11.00
2018-05-09T05:23:46.444Z,11.20
2018-05-09T05:26:14.117Z,11.70
2018-05-09T05:28:41.729Z,12.50
2018-05-09T05:31:09.236Z,13.80
2018-05-09T05:33:36.785Z,14.90
2018-05-09T05:36:04.447Z,15.50
2018-05-09T05:38:32.600Z,15.70
2018-05-09T05:41:00.067Z,15.70
2018-05-09T05:43:27.544Z,15.40
2018-05-09T05:45:55.817Z,15.00
2018-05-09T05:48:23.286Z,15.00
2018-05-09T05:50:50.838Z,14.90
2018-05-09T05:53:19.060Z,14.70
2018-05-09T05:55:46.525Z,14.70
2018-05-09T05:58:13.987Z,14.70
2018-05-09T06:00:41.445Z,14.80
2018-05-09T06:03:08.908Z,14.80
2018-05-09T06:05:36.410Z,14.70
2018-05-09T06:08:03.948Z,14.60
2018-05-09T06:10:32.141Z,14.70
2018-05-09T06:12:59.616Z,14.70
2018-05-09T06:15:27.857Z,14.90
2018-05-09T06:17:55.316Z,14.90
2018-05-09T06:20:22.786Z,14.80
2018-05-09T06:22:50.353Z,14.80
2018-05-09T06:25:17.817Z,14.80
2018-05-09T06:27:45.280Z,14.90
2018-05-09T06:30:12.784Z,15.10
2018-05-09T06:32:40.282Z,15.10
2018-05-09T06:35:07.744Z,15.20
2018-05-09T06:37:35.230Z,15.10
2018-05-09T06:40:03.441Z,15.10
2018-05-09T06:42:30.995Z,15.10
2018-05-09T06:44:58.457Z,15.20
2018-05-09T06:47:25.917Z,15.30
2018-05-09T06:49:53.418Z,15.40
2018-05-09T06:52:20.836Z,15.40
2018-05-09T06:54:48.330Z,15.40
2018-05-09T06:57:15.850Z,15.50
2018-05-09T06:59:43.305Z,15.70
2018-05-09T07:02:10.805Z,15.80
2018-05-09T07:04:38.262Z,15.80
2018-05-09T07:07:05.827Z,15.90
2018-05-09T07:09:33.288Z,16.00
2018-05-09T07:12:00.905Z,16.10
2018-05-09T07:14:28.400Z,16.20
2018-05-09T07:16:55.864Z,16.40
2018-05-09T07:19:23.418Z,16.40
2018-05-09T07:21:50.885Z,16.30
2018-05-09T07:24:18.440Z,16.10
2018-05-09T07:26:45.896Z,16.10
2018-05-09T07:29:14.173Z,16.30
2018-05-09T07:31:41.732Z,16.20
2018-05-09T07:34:09.204Z,16.40
2018-05-09T07:36:36.656Z,16.50
2018-05-09T07:39:04.209Z,16.60
2018-05-09T07:41:31.768Z,16.70
2018-05-09T07:43:59.337Z,16.90
2018-05-09T07:46:26.801Z,17.00
2018-05-09T07:48:54.260Z,17.20
2018-05-09T07:51:21.721Z,17.20
2018-05-09T07:53:49.261Z,17.10
2018-05-09T07:56:16.824Z,17.10
2018-05-09T07:58:44.292Z,17.20
2018-05-09T08:01:11.834Z,17.20
2018-05-09T08:03:39.405Z,17.40
2018-05-09T08:06:06.888Z,17.60
2018-05-09T08:08:34.321Z,17.70
2018-05-09T08:11:01.777Z,17.80
2018-05-09T08:13:29.397Z,17.80
2018-05-09T08:15:56.957Z,17.60
2018-05-09T08:18:24.408Z,17.70
2018-05-09T08:20:51.886Z,17.80
2018-05-09T08:23:19.374Z,17.80
2018-05-09T08:25:46.929Z,17.90
2018-05-09T08:28:14.386Z,17.90
2018-05-09T08:30:41.849Z,17.90
2018-05-09T08:33:09.309Z,17.90
2018-05-09T08:35:36.781Z,18.00
2018-05-09T08:38:04.241Z,18.30
2018-05-09T08:40:31.702Z,18.40
2018-05-09T08:42:59.929Z,18.40
2018-05-09T08:45:27.403Z,18.40
2018-05-09T08:47:54.861Z,18.40
2018-05-09T08:50:22.321Z,18.60
2018-05-09T08:52:49.776Z,18.70
2018-05-09T08:55:17.248Z,18.80
2018-05-09T08:57:44.809Z,18.90
2018-05-09T09:00:12.282Z,19.10
2018-05-09T09:02:39.741Z,19.10
2018-05-09T09:05:07.210Z,19.10
2018-05-09T09:07:35.425Z,19.00
2018-05-09T09:10:02.881Z,18.90
2018-05-09T09:12:30.341Z,19.00
2018-05-09T09:14:57.841Z,19.00
2018-05-09T09:17:25.306Z,19.10
2018-05-09T09:19:53.529Z,19.20
2018-05-09T09:22:20.991Z,19.20
2018-05-09T09:24:48.485Z,19.20
2018-05-09T09:27:16.107Z,19.20
2018-05-09T09:29:43.609Z,19.40
2018-05-09T09:32:11.081Z,19.50
2018-05-09T09:34:38.625Z,19.70
2018-05-09T09:37:06.080Z,19.90
2018-05-09T09:39:33.645Z,20.00
2018-05-09T09:42:01.107Z,20.00
2018-05-09T09:44:28.577Z,19.90
2018-05-09T09:46:56.838Z,19.80
2018-05-09T09:49:24.397Z,19.80
2018-05-09T09:51:51.865Z,19.80
2018-05-09T09:54:19.414Z,19.90
2018-05-09T09:56:46.973Z,19.70
2018-05-09T09:59:14.529Z,19.30
2018-05-09T10:01:41.989Z,19.10
2018-05-09T10:04:09.458Z,19.30
2018-05-09T10:06:36.913Z,19.70
2018-05-09T10:09:05.245Z,20.00
2018-05-09T10:11:32.741Z,20.20
2018-05-09T10:14:00.201Z,20.10
2018-05-09T10:16:27.830Z,20.10
2018-05-09T10:18:55.321Z,20.20
2018-05-09T10:21:22.889Z,20.30
2018-05-09T10:23:51.108Z,20.60
2018-05-09T10:26:18.617Z,20.60
2018-05-09T10:28:46.081Z,20.90
2018-05-09T10:31:13.547Z,21.10
2018-05-09T10:33:41.093Z,21.20
2018-05-09T10:36:08.654Z,21.30
2018-05-09T10:38:36.218Z,21.10
2018-05-09T10:41:03.772Z,21.10
2018-05-09T10:43:31.232Z,21.10
2018-05-09T10:45:58.699Z,21.00
2018-05-09T10:48:26.153Z,20.90
2018-05-09T10:50:53.687Z,20.90
2018-05-09T10:53:21.086Z,20.90
2018-05-09T10:55:49.312Z,20.90
2018-05-09T10:58:16.765Z,20.90
2018-05-09T11:00:44.230Z,21.00
2018-05-09T11:03:11.700Z,21.20
2018-05-09T11:05:39.177Z,21.40
2018-05-09T11:08:06.648Z,21.70
2018-05-09T11:10:34.960Z,22.20
2018-05-09T11:13:02.385Z,22.20
2018-05-09T11:15:29.841Z,22.70
2018-05-09T11:17:57.382Z,22.90
2018-05-09T11:20:24.945Z,22.50
2018-05-09T11:22:52.508Z,22.50
2018-05-09T11:25:19.981Z,22.70
2018-05-09T11:27:47.527Z,22.90
2018-05-09T11:30:15.082Z,22.70
2018-05-09T11:32:42.541Z,22.20
2018-05-09T11:35:10.101Z,21.70
2018-05-09T11:37:37.560Z,21.20
2018-05-09T11:40:05.123Z,21.00
2018-05-09T11:42:32.689Z,20.90
2018-05-09T11:45:00.144Z,20.70
2018-05-09T11:47:27.612Z,20.60
2018-05-09T11:49:55.101Z,20.50
2018-05-09T11:52:22.617Z,20.50
2018-05-09T11:54:50.176Z,20.40
2018-05-09T11:57:17.733Z,20.40
2018-05-09T11:59:45.196Z,20.50
2018-05-09T12:02:12.700Z,20.70
2018-05-09T12:04:40.218Z,21.00
2018-05-09T12:07:07.775Z,21.30
2018-05-09T12:09:35.233Z,21.70
2018-05-09T12:12:02.697Z,22.20
2018-05-09T12:14:30.248Z,22.80
2018-05-09T12:16:57.809Z,22.70
2018-05-09T12:19:25.268Z,22.80
2018-05-09T12:21:52.837Z,22.80
2018-05-09T12:24:20.293Z,22.80
2018-05-09T12:26:47.845Z,22.60
2018-05-09T12:29:15.409Z,22.30
2018-05-09T12:31:42.968Z,22.10
2018-05-09T12:34:10.433Z,21.90
2018-05-09T12:36:37.884Z,21.80
2018-05-09T12:39:05.345Z,21.70
2018-05-09T12:41:32.805Z,21.70
2018-05-09T12:44:01.081Z,21.60
2018-05-09T12:46:28.537Z,21.60
2018-05-09T12:48:56.084Z,21.50
2018-05-09T12:51:23.450Z,21.40
2018-05-09T12:53:50.927Z,21.30
2018-05-09T12:56:18.382Z,21.30
2018-05-09T12:58:45.846Z,21.40
2018-05-09T13:01:14.084Z,21.40
2018-05-09T13:03:41.555Z,21.30
2018-05-09T13:06:09.116Z,21.40
2018-05-09T13:08:36.577Z,21.40
2018-05-09T13:11:04.036Z,21.50
2018-05-09T13:13:31.510Z,21.80
2018-05-09T13:15:59.745Z,22.30
2018-05-09T13:18:27.205Z,22.30
2018-05-09T13:20:54.685Z,22.60
2018-05-09T13:23:22.244Z,22.90
2018-05-09T13:25:50.513Z,23.30
2018-05-09T13:28:17.952Z,23.20
2018-05-09T13:30:45.420Z,23.60
2018-05-09T13:33:12.881Z,23.60
2018-05-09T13:35:40.357Z,23.60
2018-05-09T13:38:07.922Z,23.50
2018-05-09T13:40:35.478Z,22.80
2018-05-09T13:43:03.059Z,21.90
2018-05-09T13:45:30.509Z,21.20
2018-05-09T13:47:58.734Z,20.10
2018-05-09T13:50:26.193Z,20.10
2018-05-09T13:52:53.648Z,19.60
2018-05-09T13:55:21.148Z,19.30
2018-05-09T13:57:48.613Z,19.00
2018-05-09T14:00:16.166Z,18.70
2018-05-09T14:02:43.620Z,18.40
2018-05-09T14:05:11.181Z,18.00
2018-05-09T14:07:38.636Z,17.70
2018-05-09T14:10:06.198Z,17.20
2018-05-09T14:12:33.659Z,16.90
2018-05-09T14:15:01.113Z,16.50
2018-05-09T14:17:28.673Z,16.30
2018-05-09T14:19:56.244Z,16.10
2018-05-09T14:22:23.801Z,15.90
2018-05-09T14:24:51.322Z,15.80
2018-05-09T14:27:18.784Z,15.80
2018-05-09T14:29:46.236Z,15.70
2018-05-09T14:32:13.821Z,15.70
2018-05-09T14:34:41.200Z,15.60
2018-05-09T14:37:08.661Z,15.60
2018-05-09T14:39:36.124Z,15.60
2018-05-09T14:42:03.584Z,15.70
2018-05-09T14:44:31.048Z,15.80
2018-05-09T14:46:59.297Z,15.90
2018-05-09T14:49:26.868Z,15.90
2018-05-09T14:51:54.419Z,16.00
2018-05-09T14:54:21.978Z,16.20
2018-05-09T14:56:49.441Z,16.40
2018-05-09T14:59:17.003Z,16.60
2018-05-09T15:01:44.457Z,16.90
2018-05-09T15:04:12.013Z,17.10
2018-05-09T15:06:39.472Z,17.40
2018-05-09T15:09:06.938Z,17.60
2018-05-09T15:11:34.409Z,17.90
2018-05-09T15:14:01.958Z,18.10
2018-05-09T15:16:29.416Z,18.50
2018-05-09T15:18:56.967Z,18.60
2018-05-09T15:21:24.421Z,18.80
2018-05-09T15:23:51.999Z,19.00
2018-05-09T15:26:19.456Z,19.10
2018-05-09T15:28:47.001Z,19.20
2018-05-09T15:31:14.561Z,19.40
2018-05-09T15:33:42.020Z,19.40
2018-05-09T15:36:09.594Z,19.50
2018-05-09T15:38:37.148Z,19.60
2018-05-09T15:41:04.705Z,19.60
2018-05-09T15:43:32.169Z,19.60
2018-05-09T15:45:59.660Z,19.60
2018-05-09T15:48:27.895Z,19.70
2018-05-09T15:50:55.345Z,19.70
2018-05-09T15:53:22.807Z,19.70
2018-05-09T15:55:50.261Z,19.60
2018-05-09T15:58:17.723Z,19.50
2018-05-09T16:00:45.250Z,19.40
2018-05-09T16:03:12.644Z,19.30
2018-05-09T16:05:40.113Z,19.20
2018-05-09T16:08:07.670Z,19.20
2018-05-09T16:10:35.154Z,19.10
2018-05-09T16:13:02.600Z,19.00
2018-05-09T16:15:30.136Z,18.90
2018-05-09T16:17:57.701Z,18.80
2018-05-09T16:20:25.272Z,18.70
2018-05-09T16:22:52.828Z,18.70
2018-05-09T16:25:20.301Z,18.60
2018-05-09T16:27:48.525Z,18.60
2018-05-09T16:30:15.999Z,18.60
2018-05-09T16:32:43.538Z,18.70
2018-05-09T16:35:11.002Z,18.70
2018-05-09T16:37:38.461Z,18.70
2018-05-09T16:40:05.917Z,18.70
2018-05-09T16:42:33.405Z,18.70
2018-05-09T16:45:00.860Z,18.90
2018-05-09T16:47:28.316Z,18.90
2018-05-09T16:49:55.880Z,18.90
2018-05-09T16:52:23.349Z,18.90
2018-05-09T16:54:50.906Z,18.90
2018-05-09T16:57:19.186Z,18.80
2018-05-09T16:59:46.658Z,18.80
2018-05-09T17:02:14.195Z,18.80
2018-05-09T17:04:41.758Z,18.70
2018-05-09T17:07:09.220Z,18.70
2018-05-09T17:09:37.445Z,18.60
2018-05-09T17:12:04.910Z,18.60
2018-05-09T17:14:32.375Z,18.60
2018-05-09T17:16:59.828Z,18.60
2018-05-09T17:19:27.324Z,18.60
2018-05-09T17:22:28.437Z,18.50
2018-05-09T17:24:55.993Z,18.50
2018-05-09T17:27:23.493Z,18.50
2018-05-09T17:29:51.062Z,18.40
2018-05-09T17:32:18.837Z,18.50
2018-05-09T17:34:47.062Z,18.40
2018-05-09T17:37:14.557Z,18.40
2018-05-09T17:39:42.112Z,18.40
2018-05-09T17:42:09.682Z,18.40
2018-05-09T17:44:37.137Z,18.50
2018-05-09T17:47:04.688Z,18.50
2018-05-09T17:49:32.258Z,18.50
2018-05-09T17:51:59.813Z,18.60
2018-05-09T17:54:27.368Z,18.60
2018-05-09T17:56:54.941Z,18.60
2018-05-09T17:59:22.489Z,18.60
2018-05-09T18:01:50.056Z,18.60
2018-05-09T18:04:17.618Z,18.50
2018-05-09T18:06:45.173Z,18.50
2018-05-09T18:09:12.641Z,18.50
2018-05-09T18:11:40.096Z,18.40
2018-05-09T18:14:07.562Z,18.40
2018-05-09T18:16:35.016Z,18.40
2018-05-09T18:19:02.568Z,18.30
2018-05-09T18:21:30.045Z,18.20
2018-05-09T18:23:57.648Z,18.10
2018-05-09T18:26:25.148Z,18.00
2018-05-09T18:28:52.612Z,17.90
2018-05-09T18:31:20.073Z,17.80
2018-05-09T18:33:47.600Z,17.60
2018-05-09T18:36:15.069Z,17.50
2018-05-09T18:38:42.543Z,17.40
2018-05-09T18:41:09.997Z,17.20
2018-05-09T18:43:37.457Z,17.10
2018-05-09T18:46:05.014Z,17.00
2018-05-09T18:48:32.479Z,16.90
2018-05-09T18:51:00.029Z,16.90
2018-05-09T18:53:27.494Z,16.90
2018-05-09T18:55:54.953Z,16.80
2018-05-09T18:58:22.513Z,16.80
2018-05-09T19:00:49.980Z,16.70
2018-05-09T19:03:17.529Z,16.60
2018-05-09T19:05:45.089Z,16.50
2018-05-09T19:08:12.649Z,16.40
2018-05-09T19:10:40.118Z,16.30
2018-05-09T19:13:07.568Z,16.20
2018-05-09T19:15:35.179Z,16.10
2018-05-09T19:18:02.688Z,16.00
2018-05-09T19:20:30.245Z,16.00
2018-05-09T19:22:57.814Z,15.90
2018-05-09T19:25:25.370Z,15.70
2018-05-09T19:27:52.924Z,15.70
2018-05-09T19:30:20.495Z,15.60
2018-05-09T19:32:48.048Z,15.50
2018-05-09T19:35:15.620Z,15.40
2018-05-09T19:37:43.068Z,15.30
2018-05-09T19:40:10.621Z,15.20
2018-05-09T19:42:38.247Z,15.10
2018-05-09T19:45:05.807Z,15.10
2018-05-09T19:47:33.257Z,15.00
2018-05-09T19:50:00.769Z,15.00
2018-05-09T19:52:28.242Z,14.90
2018-05-09T19:54:55.759Z,14.80
2018-05-09T19:57:23.245Z,14.80
2018-05-09T19:59:50.796Z,14.70
2018-05-09T20:02:18.257Z,14.60
2018-05-09T20:04:45.719Z,14.50
2018-05-09T20:07:13.177Z,14.50
2018-05-09T20:09:40.651Z,14.40
2018-05-09T20:12:08.109Z,14.30
2018-05-09T20:14:35.563Z,14.20
2018-05-09T20:17:03.018Z,14.10
2018-05-09T20:19:30.477Z,14.00
2018-05-09T20:21:57.936Z,14.00
2018-05-09T20:24:25.481Z,13.90
2018-05-09T20:26:53.056Z,13.80
2018-05-09T20:29:20.526Z,13.80
2018-05-09T20:32:00.041Z,13.70
2018-05-09T20:34:27.508Z,13.70
2018-05-09T20:36:55.060Z,13.70
2018-05-09T20:39:23.443Z,13.60
2018-05-09T20:41:50.901Z,13.60
2018-05-09T20:44:18.365Z,13.50
2018-05-09T20:46:45.822Z,13.50
2018-05-09T20:49:13.289Z,13.40
2018-05-09T20:51:50.628Z,13.30
2018-05-09T20:54:18.125Z,13.20
2018-05-09T20:56:45.603Z,13.10
2018-05-09T20:59:13.061Z,13.00
2018-05-09T21:01:47.152Z,13.00
2018-05-09T21:04:14.621Z,12.90
2018-05-09T21:06:42.084Z,12.90
2018-05-09T21:09:10.320Z,12.90
2018-05-09T21:11:37.777Z,12.90
2018-05-09T21:14:05.232Z,12.90
2018-05-09T21:16:32.706Z,12.80
2018-05-09T21:19:00.176Z,12.70
2018-05-09T21:21:27.628Z,12.60
2018-05-09T21:23:55.089Z,12.50
2018-05-09T21:26:22.658Z,12.50
2018-05-09T21:28:50.119Z,12.50
2018-05-09T21:31:17.607Z,12.50
2018-05-09T21:33:45.875Z,12.50
2018-05-09T21:36:14.120Z,12.50
2018-05-09T21:38:41.579Z,12.50
2018-05-09T21:41:09.040Z,12.50
2018-05-09T21:43:36.660Z,12.40
2018-05-09T21:46:04.117Z,12.40
2018-05-09T21:48:31.568Z,12.40
2018-05-09T21:50:59.025Z,12.40
2018-05-09T21:53:26.549Z,12.40
2018-05-09T21:55:54.066Z,12.40
2018-05-09T21:58:22.269Z,12.30
2018-05-09T22:00:50.493Z,12.30
2018-05-09T22:03:17.949Z,12.30
2018-05-09T22:05:45.409Z,12.20
2018-05-09T22:08:12.865Z,12.20
2018-05-09T22:10:40.327Z,12.20
2018-05-09T22:13:07.777Z,12.20
2018-05-09T22:15:35.237Z,12.20
2018-05-09T22:18:02.756Z,12.20
2018-05-09T22:20:30.308Z,12.20
2018-05-09T22:22:57.880Z,12.20
2018-05-09T22:25:25.485Z,12.20
2018-05-09T22:27:52.940Z,12.10
2018-05-09T22:30:20.452Z,12.10
2018-05-09T22:32:47.908Z,12.10
2018-05-09T22:35:15.382Z,12.10
2018-05-09T22:37:42.845Z,12.10
2018-05-09T22:40:10.304Z,12.00
2018-05-09T22:42:37.761Z,12.00
2018-05-09T22:45:06.014Z,11.90
2018-05-09T22:47:33.470Z,11.90
2018-05-09T22:50:00.936Z,11.90
2018-05-09T22:52:28.384Z,11.80
2018-05-09T22:54:56.845Z,11.70
2018-05-09T22:57:24.333Z,11.70
2018-05-09T22:59:51.906Z,11.60
2018-05-09T23:02:19.361Z,11.50
2018-05-09T23:04:46.825Z,11.40
2018-05-09T23:07:14.365Z,11.40
2018-05-09T23:09:41.833Z,11.30
2018-05-09T23:12:09.323Z,11.20
2018-05-09T23:14:37.556Z,11.10
2018-05-09T23:17:05.171Z,11.10
2018-05-09T23:19:32.584Z,11.00
2018-05-09T23:22:00.041Z,11.00
2018-05-09T23:24:27.505Z,11.00
2018-05-09T23:26:55.057Z,10.90
2018-05-09T23:29:22.522Z,10.90
2018-05-09T23:31:49.977Z,10.90
2018-05-09T23:34:17.437Z,10.90
2018-05-09T23:36:44.991Z,10.90
2018-05-09T23:39:12.448Z,10.90
2018-05-09T23:41:39.905Z,11.00
2018-05-09T23:44:07.467Z,11.00
2018-05-09T23:46:35.026Z,11.00
2018-05-09T23:49:02.609Z,11.00
2018-05-09T23:51:30.834Z,11.00
2018-05-09T23:53:58.382Z,11.00
2018-05-09T23:56:25.840Z,11.10
2018-05-09T23:58:53.343Z,11.20
